Arlington, TX

6:38 PM CST on February 12, 2016 (GMT -0600)
Central | | Change Station
CLOSE
Current Station
Personal Weather Station
Location: Arlington, TX
Elevation: 613 ft
Nearby Weather Stations

Elev 613 ft 32.72 °N, 97.14 °W | Updated 2 minutes ago

Clear
Clear
61.7 °F
Feels Like 61.7 °F
N
0.0
Wind Variable Wind from NE
Gusts 4.0 mph

Today
High -- | Low -- °F
--% Chance of Precip.
Yesterday
High -- | Low -- °F
Precip. -- in
Pressure 30.28 in
Visibility 10.0 miles
Clouds Clear
Dew Point 31 °F
Humidity 31%
Rainfall 0.00 in
Snow Depth Not available.
7:14 AM 6:11 PM
Waxing Crescent, 25% visible
METAR KGKY 122353Z 06006KT 10SM CLR 20/02 A3029 RMK AO2 SLP253 T02000022 10222 20189 53013
Pressure 30.28 in
Visibility 10.0 miles
Clouds Clear
Dew Point 31 °F
Humidity 31%
Rainfall 0.00 in
Snow Depth Not available.
7:14 AM 6:11 PM
Waxing Crescent, 25% visible
METAR KGKY 122353Z 06006KT 10SM CLR 20/02 A3029 RMK AO2 SLP253 T02000022 10222 20189 53013

10-Day Weather Forecast

Almanac

Astronomy

Feb. 12, 2016 Rise Set
Actual Time
Civil Twilight
Nautical Twilight
Astronomical Twilight
Moon
Length of Visible Light
Length of Day
Tomorrow will be .
, % of the Moon is Illuminated

Today's Extremes

State Highs State Lows

Community

WunderPhotos

Upload Photos

1,892,444 photos uploaded!

WunderBlog® & News

Nearby

Air Quality

  Air Quality AQ Index Pollutant
Not available.

Snow Depth

Station Depth Elevation

Earthquake Activity

City Distance Mag. Time & Date
Minimum magnitude displayed is 2.5.

Coastal Water Temperatures

Place Temperature

Stations

Nearby Weather Stations

Station Location Temp. Windchill Dew Point Humidity Wind Precip. Elev Updated Type
                   

Watches & Warnings

There are currently no watches in effect.